Time;durP1;ratioP1;P1;durP2;ratioP2;P2;SDS_P1;SDS_P2;PMS_P1;PMS_P2;Temp;Humidity;BMP_temperature;BMP_pressure;BME280_temperature;BME280_humidity;BME280_pressure;Samples;Min_cycle;Max_cycle;Signal;HPM_P1;HPM_P2
2023/03/26 00:01:57;;;;;;;2.58;0.77;;;18.70;55.10;;;;;;4985166;28;20192;-68
2023/03/26 00:04:24;;;;;;;1.60;0.98;;;18.70;55.10;;;;;;4985548;28;20219;-68
2023/03/26 00:06:50;;;;;;;1.45;0.90;;;18.70;55.10;;;;;;4978609;28;20224;-68
2023/03/26 00:09:17;;;;;;;1.00;0.70;;;18.70;55.10;;;;;;4981491;28;20236;-68
2023/03/26 00:11:45;;;;;;;2.05;0.70;;;18.70;55.10;;;;;;4987379;28;20240;-68
2023/03/26 00:14:12;;;;;;;0.73;0.73;;;18.70;55.20;;;;;;4984899;28;20193;-68
2023/03/26 00:16:42;;;;;;;1.40;0.80;;;18.70;55.10;;;;;;4972538;28;20178;-68
2023/03/26 00:19:09;;;;;;;1.92;0.75;;;18.60;55.10;;;;;;5005715;28;20704;-67
2023/03/26 00:21:36;;;;;;;1.15;0.70;;;18.70;55.20;;;;;;4979240;28;20201;-68
2023/03/26 00:24:13;;;;;;;1.33;0.90;;;18.70;55.10;;;;;;4986136;28;20679;-68
2023/03/26 00:26:39;;;;;;;1.40;0.95;;;18.70;55.10;;;;;;4993337;28;20208;-68
2023/03/26 00:29:08;;;;;;;2.58;0.90;;;18.70;55.10;;;;;;4984130;28;20637;-68
2023/03/26 00:31:38;;;;;;;1.00;0.90;;;18.70;55.10;;;;;;4982657;28;20716;-68
2023/03/26 00:34:04;;;;;;;0.80;0.70;;;18.70;55.10;;;;;;5005953;28;20185;-68
2023/03/26 00:36:30;;;;;;;0.75;0.70;;;18.60;55.00;;;;;;4992994;28;20629;-68
2023/03/26 00:38:56;;;;;;;1.77;0.90;;;18.70;55.10;;;;;;4992475;28;20212;-67
2023/03/26 00:41:24;;;;;;;1.15;0.90;;;18.70;55.10;;;;;;4968467;28;20204;-68
2023/03/26 00:43:55;;;;;;;0.77;0.77;;;18.70;55.10;;;;;;5002386;28;20200;-68
2023/03/26 00:46:23;;;;;;;1.23;0.82;;;18.70;55.10;;;;;;4981207;28;20201;-68
2023/03/26 00:48:49;;;;;;;2.03;0.93;;;18.70;55.10;;;;;;4980841;28;20217;-68
2023/03/26 00:51:18;;;;;;;1.00;0.80;;;18.70;55.10;;;;;;4981341;28;20209;-67
2023/03/26 00:53:46;;;;;;;0.80;0.70;;;18.60;55.00;;;;;;4973326;28;20665;-68
2023/03/26 00:56:13;;;;;;;1.30;1.00;;;18.70;55.10;;;;;;4981224;28;20192;-68
2023/03/26 00:58:39;;;;;;;1.45;0.80;;;18.70;55.20;;;;;;4977442;28;20296;-67
2023/03/26 01:01:12;;;;;;;1.75;0.82;;;18.70;55.20;;;;;;4984115;28;20215;-68
2023/03/26 01:03:38;;;;;;;2.13;0.98;;;18.70;55.20;;;;;;4976343;28;20232;-68
2023/03/26 01:06:26;;;;;;;1.70;0.98;;;18.60;55.10;;;;;;4984137;28;20240;-68
2023/03/26 01:08:58;;;;;;;0.93;0.88;;;18.60;55.10;;;;;;4983976;28;20248;-68
2023/03/26 01:11:32;;;;;;;1.15;0.82;;;18.60;55.00;;;;;;4984221;28;20250;-68
2023/03/26 01:14:10;;;;;;;0.95;0.70;;;18.60;55.10;;;;;;4960772;28;20320;-68
2023/03/26 01:16:53;;;;;;;0.93;0.80;;;18.70;55.20;;;;;;4990077;28;20189;-69
2023/03/26 01:19:57;;;;;;;1.88;1.15;;;18.70;55.10;;;;;;4997334;28;20212;-68
2023/03/26 01:22:26;;;;;;;0.80;0.80;;;18.70;55.10;;;;;;4980953;28;20193;-68
2023/03/26 01:24:52;;;;;;;1.17;0.88;;;18.70;55.20;;;;;;4980606;28;20201;-68
2023/03/26 01:27:39;;;;;;;1.67;0.90;;;18.60;55.00;;;;;;4980118;28;20202;-68
2023/03/26 01:30:37;;;;;;;1.42;0.88;;;18.60;55.00;;;;;;4980561;28;20218;-68
2023/03/26 01:33:28;;;;;;;1.15;0.90;;;18.70;55.10;;;;;;4964065;28;20205;-68
2023/03/26 01:36:05;;;;;;;0.93;0.70;;;18.70;55.10;;;;;;4991451;28;20193;-68
2023/03/26 01:39:02;;;;;;;1.17;0.90;;;18.70;55.10;;;;;;4991024;28;20204;-68
2023/03/26 01:41:53;;;;;;;1.65;0.93;;;18.70;55.10;;;;;;4988573;28;20210;-68
2023/03/26 01:44:49;;;;;;;1.20;0.77;;;18.70;55.10;;;;;;5006676;28;20280;-68
2023/03/26 01:47:17;;;;;;;0.88;0.73;;;18.60;55.10;;;;;;4982568;28;20194;-68
2023/03/26 01:49:43;;;;;;;0.90;0.88;;;18.60;55.10;;;;;;4973354;28;20213;-68
2023/03/26 01:52:18;;;;;;;1.73;0.70;;;18.70;55.10;;;;;;4971941;28;20207;-67
2023/03/26 01:54:45;;;;;;;1.02;0.93;;;18.60;55.60;;;;;;4987801;28;20215;-68
2023/03/26 01:58:01;;;;;;;0.70;0.70;;;18.60;55.00;;;;;;4991647;28;20193;-68
2023/03/26 02:00:35;;;;;;;1.10;0.90;;;18.60;55.00;;;;;;4976586;28;20232;-68
2023/03/26 02:03:21;;;;;;;1.10;1.00;;;18.60;55.00;;;;;;4977532;28;20195;-68
2023/03/26 02:06:00;;;;;;;1.33;0.93;;;18.60;55.00;;;;;;4972100;28;20265;-68
2023/03/26 02:08:52;;;;;;;1.23;0.80;;;18.70;55.10;;;;;;4974557;28;20197;-67
2023/03/26 02:11:19;;;;;;;1.20;0.80;;;18.60;55.60;;;;;;4981850;28;20216;-67
2023/03/26 02:13:45;;;;;;;1.10;0.90;;;18.60;55.00;;;;;;4978650;28;20198;-67
2023/03/26 02:16:16;;;;;;;0.85;0.85;;;18.70;55.10;;;;;;4980382;28;20279;-68
2023/03/26 02:18:44;;;;;;;1.58;0.70;;;18.70;55.00;;;;;;5004801;28;20194;-68
2023/03/26 02:21:19;;;;;;;0.68;0.60;;;18.70;55.00;;;;;;5007737;28;20267;-67
2023/03/26 02:23:49;;;;;;;1.05;0.70;;;18.60;54.90;;;;;;4994838;28;20193;-67
2023/03/26 02:26:18;;;;;;;0.77;0.70;;;18.70;55.00;;;;;;4988775;28;20232;-67
2023/03/26 02:29:00;;;;;;;1.67;1.00;;;18.60;55.30;;;;;;4991304;28;20197;-67
2023/03/26 02:31:27;;;;;;;1.63;0.82;;;18.70;55.00;;;;;;4983054;28;20205;-68
2023/03/26 02:33:54;;;;;;;1.92;0.80;;;18.70;55.60;;;;;;4991130;28;20192;-67
2023/03/26 02:36:26;;;;;;;1.58;0.70;;;18.60;54.90;;;;;;4983174;28;20667;-68
2023/03/26 02:38:56;;;;;;;0.90;0.60;;;18.70;55.00;;;;;;5007613;28;20212;-68
2023/03/26 02:41:23;;;;;;;1.13;0.90;;;18.60;54.90;;;;;;4994623;28;20189;-67
2023/03/26 02:43:55;;;;;;;0.95;0.80;;;18.60;55.00;;;;;;4995995;28;20184;-68
2023/03/26 02:46:26;;;;;;;1.23;0.70;;;18.70;55.00;;;;;;4995878;28;20217;-67
2023/03/26 02:49:02;;;;;;;1.35;0.60;;;18.70;55.00;;;;;;4995994;28;20208;-68
2023/03/26 02:51:28;;;;;;;0.93;0.70;;;18.60;54.90;;;;;;4994571;28;20212;-68
2023/03/26 02:54:03;;;;;;;0.98;0.70;;;18.70;55.00;;;;;;4995420;28;20327;-68
2023/03/26 02:56:32;;;;;;;1.55;0.80;;;18.70;55.00;;;;;;5010662;28;20193;-68
2023/03/26 02:59:17;;;;;;;0.88;0.88;;;18.70;55.00;;;;;;4997165;28;20204;-68
2023/03/26 03:01:46;;;;;;;0.75;0.75;;;18.70;55.00;;;;;;4994965;28;20189;-68
2023/03/26 03:04:16;;;;;;;0.60;0.60;;;18.70;55.00;;;;;;4978422;28;20347;-69
2023/03/26 03:06:43;;;;;;;1.25;0.68;;;18.70;55.00;;;;;;4994415;28;20232;-68
2023/03/26 03:09:10;;;;;;;0.88;0.70;;;18.70;55.00;;;;;;4997521;28;20582;-67
2023/03/26 03:11:40;;;;;;;1.38;0.95;;;18.70;55.00;;;;;;5002683;28;20226;-68
2023/03/26 03:14:07;;;;;;;1.70;0.90;;;18.70;55.00;;;;;;4978265;28;20189;-68
2023/03/26 03:16:33;;;;;;;0.77;0.77;;;18.70;55.00;;;;;;5010422;28;20209;-68
2023/03/26 03:19:05;;;;;;;0.95;0.85;;;18.70;55.00;;;;;;4994985;28;20300;-68
2023/03/26 03:21:39;;;;;;;1.02;0.70;;;18.70;55.00;;;;;;5010493;28;20188;-68
2023/03/26 03:24:07;;;;;;;0.90;0.80;;;18.60;54.90;;;;;;4994328;28;20181;-67
2023/03/26 03:26:36;;;;;;;2.50;0.98;;;18.70;55.00;;;;;;4994650;28;20185;-68
2023/03/26 03:29:14;;;;;;;1.63;0.80;;;18.70;55.00;;;;;;4995435;28;20586;-68
2023/03/26 03:31:40;;;;;;;0.75;0.52;;;18.70;55.00;;;;;;4993759;28;20236;-68
2023/03/26 03:34:14;;;;;;;1.30;0.90;;;18.70;55.00;;;;;;4994056;28;20250;-68
2023/03/26 03:36:48;;;;;;;1.35;0.80;;;18.60;54.80;;;;;;4993830;28;20255;-67
2023/03/26 03:39:30;;;;;;;0.93;0.77;;;18.70;55.00;;;;;;5009771;28;20220;-68
2023/03/26 03:41:56;;;;;;;0.70;0.70;;;18.70;55.00;;;;;;4977801;28;20185;-68
2023/03/26 03:44:22;;;;;;;0.70;0.60;;;18.70;55.00;;;;;;5008699;28;20546;-68
2023/03/26 03:46:52;;;;;;;1.35;0.70;;;18.70;54.90;;;;;;4986921;28;20193;-68
2023/03/26 03:49:18;;;;;;;0.95;0.70;;;18.60;54.90;;;;;;4993275;28;20232;-68
2023/03/26 03:51:44;;;;;;;0.80;0.70;;;18.70;55.00;;;;;;4993241;28;20228;-68
2023/03/26 03:54:24;;;;;;;1.33;0.85;;;18.70;54.90;;;;;;4997240;28;20239;-67
2023/03/26 03:57:03;;;;;;;1.17;1.00;;;18.70;55.00;;;;;;4995248;28;20193;-68
2023/03/26 03:59:50;;;;;;;1.02;0.90;;;18.70;55.00;;;;;;4986621;28;20295;-68
2023/03/26 04:02:24;;;;;;;1.10;0.85;;;18.70;55.00;;;;;;4990104;28;20240;-68
2023/03/26 04:04:58;;;;;;;1.30;0.82;;;18.70;55.00;;;;;;5005927;28;20577;-68
2023/03/26 04:07:26;;;;;;;0.90;0.82;;;18.70;55.50;;;;;;4991276;28;20190;-68
2023/03/26 04:10:14;;;;;;;0.80;0.80;;;18.70;55.00;;;;;;4993953;28;20220;-67
2023/03/26 04:12:59;;;;;;;0.85;0.80;;;18.70;55.00;;;;;;5001895;28;20248;-68
2023/03/26 04:15:43;;;;;;;2.05;1.00;;;18.70;55.00;;;;;;4983731;28;20197;-68
2023/03/26 04:18:10;;;;;;;0.93;0.73;;;18.70;55.00;;;;;;4988939;28;20533;-67
2023/03/26 04:20:40;;;;;;;1.33;0.80;;;18.70;54.90;;;;;;4993000;28;20207;-67
2023/03/26 04:23:12;;;;;;;0.90;0.90;;;18.70;55.00;;;;;;4977280;28;20185;-68
2023/03/26 04:25:47;;;;;;;1.00;0.90;;;18.70;55.00;;;;;;4993145;28;20312;-68
2023/03/26 04:28:27;;;;;;;0.80;0.80;;;18.70;54.90;;;;;;4992997;28;20213;-68
2023/03/26 04:31:17;;;;;;;1.35;0.90;;;18.70;55.00;;;;;;4986969;28;20304;-68
2023/03/26 04:33:46;;;;;;;0.73;0.73;;;18.70;55.00;;;;;;4985011;28;20193;-68
2023/03/26 04:36:15;;;;;;;0.85;0.73;;;18.70;55.00;;;;;;4992663;28;20195;-68
2023/03/26 04:38:48;;;;;;;0.90;0.90;;;18.70;55.00;;;;;;4992805;28;20271;-68
2023/03/26 04:41:15;;;;;;;1.65;0.98;;;18.70;55.00;;;;;;4985092;28;20192;-68
2023/03/26 04:43:49;;;;;;;1.17;0.77;;;18.70;54.90;;;;;;4992733;28;20203;-68
2023/03/26 04:46:32;;;;;;;1.42;0.90;;;18.70;54.90;;;;;;4978634;28;20192;-67
2023/03/26 04:49:19;;;;;;;0.90;0.80;;;18.70;55.00;;;;;;4992604;28;20204;-68
2023/03/26 04:51:46;;;;;;;0.70;0.70;;;18.70;55.00;;;;;;4992466;28;20715;-68
2023/03/26 04:54:31;;;;;;;1.48;1.00;;;18.70;55.00;;;;;;4992561;28;20204;-69
2023/03/26 04:57:08;;;;;;;1.58;0.70;;;18.70;54.90;;;;;;4992948;28;20185;-68
2023/03/26 04:59:41;;;;;;;1.50;0.80;;;18.70;54.90;;;;;;4976001;28;20207;-68
2023/03/26 05:02:11;;;;;;;0.60;0.60;;;18.70;55.00;;;;;;4991606;28;20189;-68
2023/03/26 05:04:47;;;;;;;0.93;0.82;;;18.70;55.00;;;;;;4993562;28;20185;-68
2023/03/26 05:07:21;;;;;;;0.70;0.70;;;18.70;54.90;;;;;;4992219;28;20184;-68
2023/03/26 05:09:50;;;;;;;1.10;0.70;;;18.70;55.00;;;;;;5024346;22;20227;-71
2023/03/26 05:12:22;;;;;;;1.33;1.00;;;18.70;55.00;;;;;;5003043;28;20274;-71
2023/03/26 05:14:56;;;;;;;0.80;0.70;;;18.70;55.00;;;;;;5000137;28;20189;-71
2023/03/26 05:17:41;;;;;;;0.85;0.85;;;18.70;55.00;;;;;;5000275;28;20195;-71
2023/03/26 05:20:27;;;;;;;0.80;0.80;;;18.70;55.00;;;;;;4999913;28;20243;-72
2023/03/26 05:22:53;;;;;;;1.52;0.77;;;18.70;55.00;;;;;;4993568;28;20213;-71
2023/03/26 05:25:24;;;;;;;0.77;0.70;;;18.70;55.00;;;;;;4992445;28;20189;-72
2023/03/26 05:27:50;;;;;;;2.22;0.82;;;18.70;55.00;;;;;;4975742;28;20199;-71
2023/03/26 05:30:20;;;;;;;0.90;0.90;;;18.70;55.00;;;;;;4999848;28;20283;-72
2023/03/26 05:32:50;;;;;;;1.52;0.90;;;18.70;55.00;;;;;;4976848;28;20185;-72
2023/03/26 05:35:20;;;;;;;1.20;1.00;;;18.70;55.00;;;;;;4984031;28;20191;-72
2023/03/26 05:37:48;;;;;;;0.80;0.73;;;18.70;55.00;;;;;;4971924;28;20199;-71
2023/03/26 05:40:16;;;;;;;0.85;0.63;;;18.70;55.00;;;;;;5003681;28;20209;-71
2023/03/26 05:43:03;;;;;;;1.25;0.80;;;18.70;55.00;;;;;;4997518;28;20188;-71
2023/03/26 05:46:01;;;;;;;0.82;0.82;;;18.70;54.90;;;;;;4999358;28;20186;-72
2023/03/26 05:48:30;;;;;;;0.88;0.75;;;18.70;54.90;;;;;;5017797;28;20191;-71
2023/03/26 05:50:57;;;;;;;1.48;0.82;;;18.70;55.00;;;;;;5004545;28;20220;-72
2023/03/26 05:53:26;;;;;;;1.08;0.88;;;18.70;55.00;;;;;;5002799;28;20271;-73
2023/03/26 05:56:10;;;;;;;1.88;0.80;;;18.70;55.00;;;;;;5011681;28;20198;-71
2023/03/26 05:58:55;;;;;;;0.95;0.85;;;18.70;55.00;;;;;;4993210;28;20204;-72
2023/03/26 06:01:56;;;;;;;0.75;0.75;;;18.70;55.00;;;;;;5003179;28;20330;-72
2023/03/26 06:04:41;;;;;;;1.70;1.00;;;18.70;55.00;;;;;;4992618;28;20204;-72
2023/03/26 06:07:25;;;;;;;1.45;1.00;;;18.70;54.90;;;;;;5000450;28;20288;-72
2023/03/26 06:10:05;;;;;;;1.08;1.08;;;18.70;55.00;;;;;;5021514;28;20219;-72
2023/03/26 06:12:31;;;;;;;1.05;0.90;;;18.70;55.00;;;;;;4997415;28;20208;-71
2023/03/26 06:14:56;;;;;;;1.70;1.10;;;18.70;55.50;;;;;;5005831;28;20249;-71
2023/03/26 06:17:35;;;;;;;2.47;1.20;;;18.80;55.00;;;;;;4999943;28;20208;-72
2023/03/26 06:20:08;;;;;;;1.52;1.10;;;18.70;55.00;;;;;;5008539;28;20204;-71
2023/03/26 06:22:37;;;;;;;1.42;1.10;;;18.70;55.00;;;;;;4987678;28;20188;-72
2023/03/26 06:25:19;;;;;;;1.85;1.38;;;18.70;55.00;;;;;;4995508;28;20184;-71
2023/03/26 06:28:03;;;;;;;1.73;1.40;;;18.70;55.00;;;;;;5009161;28;20194;-71
2023/03/26 06:30:50;;;;;;;2.08;1.17;;;18.70;55.00;;;;;;5011236;28;20223;-71
2023/03/26 06:33:29;;;;;;;1.48;1.10;;;18.80;55.00;;;;;;4998337;28;20185;-72
2023/03/26 06:35:57;;;;;;;1.73;1.20;;;18.70;55.00;;;;;;5006647;28;20191;-72
2023/03/26 06:38:23;;;;;;;2.80;1.50;;;18.70;55.00;;;;;;5006168;28;20279;-71
2023/03/26 06:40:49;;;;;;;2.00;1.00;;;18.70;55.00;;;;;;5011161;28;20273;-71
2023/03/26 06:43:17;;;;;;;1.15;1.05;;;18.70;55.00;;;;;;5010493;28;20192;-72
2023/03/26 06:45:50;;;;;;;1.40;1.08;;;18.70;55.00;;;;;;4999824;28;20200;-72
2023/03/26 06:48:35;;;;;;;1.50;1.10;;;18.70;55.00;;;;;;4996534;28;20207;-71
2023/03/26 06:51:20;;;;;;;1.30;0.90;;;18.70;55.00;;;;;;5010619;28;20306;-71
2023/03/26 06:54:04;;;;;;;1.83;1.00;;;18.70;55.00;;;;;;5014543;28;20261;-71
2023/03/26 06:56:51;;;;;;;1.80;1.27;;;18.70;55.00;;;;;;4986961;28;20184;-71
2023/03/26 06:59:36;;;;;;;2.13;1.10;;;18.70;55.00;;;;;;5003871;28;20227;-72
2023/03/26 07:02:21;;;;;;;1.42;0.95;;;18.80;55.00;;;;;;5010081;28;20279;-72
2023/03/26 07:05:06;;;;;;;1.35;1.20;;;18.70;55.60;;;;;;5010817;28;20334;-72
2023/03/26 07:08:10;;;;;;;2.65;1.30;;;18.70;55.00;;;;;;5007994;28;20259;-72
2023/03/26 07:10:54;;;;;;;1.20;1.10;;;18.70;55.00;;;;;;5002516;28;20774;-72
2023/03/26 07:13:55;;;;;;;1.92;0.88;;;18.70;55.00;;;;;;4969640;28;20244;-72
2023/03/26 07:16:41;;;;;;;1.75;0.90;;;18.70;55.10;;;;;;5015754;28;20191;-72
2023/03/26 07:19:18;;;;;;;1.88;1.23;;;18.70;55.00;;;;;;4999062;28;20208;-71
2023/03/26 07:21:45;;;;;;;1.58;1.00;;;18.70;55.00;;;;;;5005898;28;20210;-72
2023/03/26 07:24:40;;;;;;;1.30;1.00;;;18.70;55.10;;;;;;5006573;28;20200;-71
2023/03/26 07:27:38;;;;;;;1.40;0.88;;;18.70;55.10;;;;;;4999581;28;20259;-71
2023/03/26 07:30:55;;;;;;;1.17;0.90;;;18.70;55.10;;;;;;4996955;28;20269;-71
2023/03/26 07:33:55;;;;;;;2.80;1.15;;;18.70;55.10;;;;;;5004283;28;20287;-73
2023/03/26 07:37:02;;;;;;;2.05;1.02;;;18.70;55.00;;;;;;4987607;28;20196;-72
2023/03/26 07:40:18;;;;;;;1.17;1.02;;;18.70;55.10;;;;;;4994908;28;20227;-72
2023/03/26 07:43:40;;;;;;;1.63;1.10;;;18.70;55.10;;;;;;4999285;28;20204;-72
2023/03/26 07:46:33;;;;;;;1.00;0.95;;;18.70;55.50;;;;;;5013458;28;20227;-72
2023/03/26 07:49:28;;;;;;;1.67;0.90;;;18.70;55.10;;;;;;4987962;28;20244;-72
2023/03/26 07:52:12;;;;;;;1.85;1.10;;;18.70;55.10;;;;;;4989571;28;20266;-72
2023/03/26 07:54:59;;;;;;;2.13;1.10;;;18.70;55.10;;;;;;4993588;28;20185;-71
2023/03/26 07:58:29;;;;;;;2.47;1.30;;;18.70;55.10;;;;;;5005210;28;20203;-72
2023/03/26 08:01:52;;;;;;;1.65;1.33;;;18.70;55.10;;;;;;4999785;28;20303;-71
2023/03/26 08:05:03;;;;;;;1.95;1.00;;;18.70;55.10;;;;;;4975002;28;20206;-71
2023/03/26 08:08:29;;;;;;;1.65;1.05;;;18.70;55.10;;;;;;5012808;28;20284;-71
2023/03/26 08:11:31;;;;;;;1.40;0.95;;;18.70;55.10;;;;;;5004904;28;20270;-71
2023/03/26 08:14:26;;;;;;;1.77;0.90;;;18.70;55.10;;;;;;5008635;28;20781;-71
2023/03/26 08:17:03;;;;;;;2.42;1.30;;;18.70;55.10;;;;;;5004358;28;20399;-72
2023/03/26 08:20:07;;;;;;;2.33;1.45;;;18.70;55.10;;;;;;5012424;28;20220;-73
2023/03/26 08:22:40;;;;;;;2.15;1.38;;;18.70;55.10;;;;;;4968739;28;20198;-72
2023/03/26 08:25:31;;;;;;;3.47;1.30;;;18.70;55.70;;;;;;4999558;28;20252;-72
2023/03/26 08:28:12;;;;;;;1.55;1.40;;;18.70;55.10;;;;;;4996145;28;20599;-73
2023/03/26 08:30:38;;;;;;;1.85;1.30;;;18.70;55.10;;;;;;4991406;28;20208;-72
2023/03/26 08:33:12;;;;;;;2.30;1.52;;;18.70;55.80;;;;;;5002329;28;20280;-72
2023/03/26 08:35:41;;;;;;;1.67;1.23;;;18.70;55.10;;;;;;4977877;28;20189;-72
2023/03/26 08:38:08;;;;;;;2.30;1.55;;;18.70;55.10;;;;;;5019352;28;20184;-72
2023/03/26 08:41:07;;;;;;;1.38;1.10;;;18.70;55.20;;;;;;5001225;28;20267;-72
2023/03/26 08:43:51;;;;;;;1.27;1.17;;;18.70;55.10;;;;;;5002115;28;20197;-72
2023/03/26 08:46:27;;;;;;;2.63;1.48;;;18.80;55.20;;;;;;4996571;28;20199;-72
2023/03/26 08:48:59;;;;;;;3.00;1.00;;;18.80;55.20;;;;;;5020808;28;20180;-72
2023/03/26 08:51:47;;;;;;;1.45;1.25;;;18.80;55.20;;;;;;4991194;28;20223;-72
2023/03/26 08:54:47;;;;;;;1.73;1.15;;;18.80;55.20;;;;;;4990641;28;20239;-73
2023/03/26 08:57:46;;;;;;;1.35;1.23;;;18.70;55.10;;;;;;4990815;28;20189;-72
2023/03/26 09:00:37;;;;;;;1.70;1.10;;;18.80;55.20;;;;;;4986735;28;20212;-73
2023/03/26 09:03:47;;;;;;;2.33;1.27;;;18.80;55.30;;;;;;4974854;28;20196;-73
2023/03/26 09:06:48;;;;;;;1.60;1.10;;;18.80;55.20;;;;;;4973313;28;20235;-73
2023/03/26 09:09:48;;;;;;;1.42;1.20;;;18.80;55.30;;;;;;4989500;28;20243;-73
2023/03/26 09:12:57;;;;;;;1.92;1.02;;;18.80;55.30;;;;;;4977599;28;20216;-74
2023/03/26 09:16:09;;;;;;;1.73;1.40;;;18.80;55.30;;;;;;5002247;28;20226;-73
2023/03/26 09:19:19;;;;;;;1.60;1.25;;;18.80;55.30;;;;;;4996533;28;20714;-73
2023/03/26 09:22:02;;;;;;;1.00;0.90;;;18.80;55.30;;;;;;5009638;28;20195;-72
2023/03/26 09:25:14;;;;;;;1.38;0.90;;;18.80;55.30;;;;;;4991475;28;20201;-72
2023/03/26 09:27:59;;;;;;;2.28;1.10;;;18.80;55.30;;;;;;4998215;28;20192;-73
2023/03/26 09:30:59;;;;;;;2.10;1.25;;;18.80;55.30;;;;;;4994313;28;20294;-73
2023/03/26 09:33:59;;;;;;;1.75;1.20;;;18.80;55.30;;;;;;4996892;28;20185;-72
2023/03/26 09:36:55;;;;;;;1.10;1.00;;;18.80;55.30;;;;;;5006361;28;20198;-72
2023/03/26 09:40:10;;;;;;;1.23;0.88;;;18.90;55.30;;;;;;4997673;28;20266;-73
2023/03/26 09:43:03;;;;;;;0.98;0.88;;;18.90;55.30;;;;;;4997727;28;20188;-72
2023/03/26 09:46:29;;;;;;;1.85;1.20;;;18.90;55.30;;;;;;5006904;28;20200;-72
2023/03/26 09:49:32;;;;;;;1.45;1.08;;;18.90;55.30;;;;;;4937987;28;20200;-72
2023/03/26 09:52:19;;;;;;;1.90;1.20;;;18.90;55.30;;;;;;4986206;28;20220;-72
2023/03/26 09:55:19;;;;;;;1.90;1.00;;;18.90;55.20;;;;;;4984513;28;20192;-73
2023/03/26 09:58:15;;;;;;;1.33;1.17;;;18.90;55.20;;;;;;4987043;28;20200;-72
2023/03/26 10:01:19;;;;;;;1.77;1.00;;;19.00;55.20;;;;;;5000141;28;20303;-72
2023/03/26 10:03:53;;;;;;;3.03;1.15;;;18.90;55.20;;;;;;4992268;28;20189;-73
2023/03/26 10:06:50;;;;;;;1.10;1.00;;;19.00;55.20;;;;;;5010759;28;20207;-72
2023/03/26 10:09:50;;;;;;;2.13;1.00;;;19.00;55.20;;;;;;4998525;28;20227;-73
2023/03/26 10:12:37;;;;;;;1.90;1.02;;;19.00;55.40;;;;;;4975109;28;20208;-72
2023/03/26 10:15:20;;;;;;;1.55;1.00;;;19.00;55.40;;;;;;5003033;28;20210;-72
2023/03/26 10:18:26;;;;;;;1.20;1.10;;;19.00;55.40;;;;;;5010904;28;20231;-73
2023/03/26 10:21:33;;;;;;;1.98;1.00;;;19.00;55.40;;;;;;5001837;28;20215;-72
2023/03/26 10:24:12;;;;;;;1.23;1.00;;;19.00;55.40;;;;;;4999519;28;20189;-73
2023/03/26 10:27:19;;;;;;;1.55;0.90;;;19.00;55.40;;;;;;4999341;28;20192;-72
2023/03/26 10:30:38;;;;;;;1.70;0.90;;;19.00;55.40;;;;;;4940923;28;20586;-73
2023/03/26 10:33:29;;;;;;;1.15;0.80;;;19.00;55.40;;;;;;4971079;28;20203;-72
2023/03/26 10:36:13;;;;;;;1.85;0.90;;;19.00;55.40;;;;;;5007716;28;20205;-73
2023/03/26 10:39:05;;;;;;;2.15;1.00;;;19.00;55.40;;;;;;5007407;28;20282;-73
2023/03/26 10:41:43;;;;;;;2.90;1.30;;;19.00;55.40;;;;;;4995577;28;20187;-73
2023/03/26 10:44:47;;;;;;;1.30;1.00;;;19.00;55.40;;;;;;4984294;28;20189;-72
2023/03/26 10:47:30;;;;;;;1.35;0.90;;;19.00;55.60;;;;;;4968420;28;20188;-72
2023/03/26 10:50:05;;;;;;;1.55;1.10;;;19.00;55.60;;;;;;4986280;28;20295;-72
2023/03/26 10:53:13;;;;;;;1.02;0.88;;;19.00;55.60;;;;;;5010654;28;20251;-73
2023/03/26 10:55:45;;;;;;;0.80;0.80;;;18.90;55.50;;;;;;4985413;28;20200;-73
2023/03/26 10:58:22;;;;;;;3.00;1.00;;;19.00;55.60;;;;;;4997986;28;20185;-73
2023/03/26 11:01:01;;;;;;;1.73;0.90;;;19.00;55.50;;;;;;5010639;28;20208;-72
2023/03/26 11:03:38;;;;;;;2.35;1.00;;;19.00;55.50;;;;;;5005239;28;20645;-72
2023/03/26 11:06:24;;;;;;;2.20;0.98;;;19.00;55.60;;;;;;4997709;28;20706;-72
2023/03/26 11:09:25;;;;;;;1.15;0.90;;;19.00;56.10;;;;;;4997664;28;20275;-72
2023/03/26 11:12:23;;;;;;;1.15;1.05;;;19.00;55.50;;;;;;5034232;22;20237;-68
2023/03/26 11:15:03;;;;;;;1.42;0.82;;;19.00;55.50;;;;;;4978122;28;20205;-68
2023/03/26 11:17:48;;;;;;;2.33;1.10;;;19.00;55.40;;;;;;4969935;28;20196;-69
2023/03/26 11:20:51;;;;;;;1.60;1.20;;;19.00;55.50;;;;;;4969634;28;20672;-68
2023/03/26 11:23:39;;;;;;;0.93;0.73;;;19.00;55.40;;;;;;4986148;28;20213;-69
2023/03/26 11:26:16;;;;;;;1.60;1.00;;;19.10;55.50;;;;;;4994157;28;20197;-68
2023/03/26 11:29:13;;;;;;;1.13;0.90;;;19.00;55.40;;;;;;4978549;28;20340;-68
2023/03/26 11:31:59;;;;;;;2.70;1.00;;;19.00;55.50;;;;;;4990353;28;20213;-68
2023/03/26 11:34:57;;;;;;;3.15;0.90;;;19.00;55.50;;;;;;4980030;28;20185;-67
2023/03/26 11:37:41;;;;;;;1.35;0.88;;;19.00;55.60;;;;;;4982405;28;20186;-68
2023/03/26 11:40:23;;;;;;;1.23;0.90;;;19.00;55.60;;;;;;4961432;28;20212;-68
2023/03/26 11:42:57;;;;;;;2.88;1.00;;;19.00;55.60;;;;;;5006825;28;20197;-68
2023/03/26 11:45:29;;;;;;;1.42;1.05;;;19.00;55.60;;;;;;5004213;28;20235;-68
2023/03/26 11:48:17;;;;;;;1.15;0.90;;;19.00;55.60;;;;;;4977097;28;20196;-68
2023/03/26 11:50:52;;;;;;;1.95;0.90;;;19.00;55.60;;;;;;4990630;28;20216;-68
2023/03/26 11:53:23;;;;;;;2.05;0.70;;;19.00;55.60;;;;;;4971085;28;20563;-67
2023/03/26 11:56:02;;;;;;;1.10;0.90;;;19.00;55.60;;;;;;4982075;28;20232;-68
2023/03/26 11:58:39;;;;;;;1.00;0.90;;;19.00;55.60;;;;;;4988579;28;20177;-68
2023/03/26 12:01:15;;;;;;;2.72;0.88;;;19.10;55.70;;;;;;4987216;28;20228;-67
2023/03/26 12:03:41;;;;;;;0.80;0.80;;;19.00;55.60;;;;;;4974188;28;20187;-70
2023/03/26 12:06:24;;;;;;;1.50;0.90;;;19.00;55.50;;;;;;4974164;28;20182;-69
2023/03/26 12:08:50;;;;;;;1.05;0.80;;;19.10;55.60;;;;;;4963606;28;20196;-69
2023/03/26 12:11:23;;;;;;;0.65;0.65;;;19.10;55.60;;;;;;4961070;28;20216;-68
2023/03/26 12:14:02;;;;;;;2.00;1.00;;;19.10;55.60;;;;;;4991267;28;20189;-69
2023/03/26 12:16:29;;;;;;;1.42;0.80;;;19.10;55.60;;;;;;4993586;28;20187;-68
2023/03/26 12:19:18;;;;;;;1.13;0.90;;;19.10;55.70;;;;;;4994418;28;20189;-68
2023/03/26 12:21:51;;;;;;;3.03;1.15;;;19.00;55.60;;;;;;4992863;28;20217;-68
2023/03/26 12:24:28;;;;;;;0.75;0.75;;;19.10;55.80;;;;;;5006226;28;20189;-68
2023/03/26 12:27:19;;;;;;;4.40;1.15;;;19.10;55.70;;;;;;4990888;28;20552;-68
2023/03/26 12:30:03;;;;;;;1.35;1.10;;;19.10;55.80;;;;;;4989622;28;20215;-68
2023/03/26 12:32:40;;;;;;;1.15;1.05;;;19.10;55.80;;;;;;4985015;28;20220;-69
2023/03/26 12:35:17;;;;;;;1.77;1.20;;;19.10;55.80;;;;;;4989807;28;20200;-69
2023/03/26 12:37:45;;;;;;;1.20;0.98;;;19.10;55.80;;;;;;4991096;28;20192;-69
2023/03/26 12:40:33;;;;;;;1.45;1.13;;;19.10;55.80;;;;;;4969088;28;20205;-69
2023/03/26 12:43:02;;;;;;;3.33;1.10;;;19.10;55.80;;;;;;4993462;28;20247;-69
2023/03/26 12:45:42;;;;;;;2.35;1.10;;;19.10;55.80;;;;;;4976994;28;20188;-69
2023/03/26 12:48:14;;;;;;;3.25;0.85;;;19.10;55.80;;;;;;4976583;28;20185;-68
2023/03/26 12:51:36;;;;;;;0.98;0.85;;;19.10;55.80;;;;;;5005595;28;20214;-69
2023/03/26 12:54:48;;;;;;;3.55;1.05;;;19.10;55.80;;;;;;4991548;28;20193;-69
2023/03/26 12:57:29;;;;;;;1.05;0.90;;;19.10;55.80;;;;;;4989247;28;20181;-69
2023/03/26 13:00:25;;;;;;;2.42;1.10;;;19.10;55.90;;;;;;4982132;28;20618;-70
2023/03/26 13:03:36;;;;;;;1.20;0.70;;;19.10;55.90;;;;;;4975329;28;20259;-69
2023/03/26 13:06:14;;;;;;;1.45;0.90;;;19.10;55.80;;;;;;4975484;28;20197;-69
2023/03/26 13:09:09;;;;;;;1.55;0.98;;;19.10;55.80;;;;;;4984593;28;20648;-69
2023/03/26 13:11:39;;;;;;;3.55;1.02;;;19.10;55.80;;;;;;5004619;28;20213;-69
2023/03/26 13:14:43;;;;;;;1.80;1.00;;;19.10;55.80;;;;;;4958633;28;20197;-69
2023/03/26 13:17:32;;;;;;;1.00;0.90;;;19.10;55.80;;;;;;4956119;28;20186;-69
2023/03/26 13:20:21;;;;;;;1.70;0.90;;;19.10;56.30;;;;;;4982781;28;20215;-69
2023/03/26 13:23:31;;;;;;;1.35;1.00;;;19.10;55.80;;;;;;4975062;28;20224;-70
2023/03/26 13:26:43;;;;;;;2.63;1.20;;;19.10;55.80;;;;;;4970681;28;20204;-69
2023/03/26 13:29:24;;;;;;;2.10;1.13;;;19.10;55.80;;;;;;4966131;28;20216;-69
2023/03/26 13:32:07;;;;;;;1.90;0.90;;;19.10;55.70;;;;;;4979769;28;20316;-69
2023/03/26 13:35:03;;;;;;;1.05;0.70;;;19.10;55.70;;;;;;4986046;28;20211;-69
2023/03/26 13:37:48;;;;;;;0.95;0.85;;;19.10;55.70;;;;;;4998595;28;20189;-69
2023/03/26 13:40:32;;;;;;;0.95;0.80;;;19.10;55.60;;;;;;4999567;28;20204;-69
2023/03/26 13:43:21;;;;;;;1.70;1.00;;;19.10;55.60;;;;;;4992011;28;20185;-69
2023/03/26 13:46:41;;;;;;;1.33;1.00;;;19.10;55.70;;;;;;4975123;28;20197;-70
2023/03/26 13:49:14;;;;;;;1.52;1.05;;;19.10;55.70;;;;;;4957993;28;20661;-69
2023/03/26 13:52:10;;;;;;;1.58;0.90;;;19.10;55.60;;;;;;4960114;28;20225;-69
2023/03/26 13:54:47;;;;;;;1.33;1.00;;;19.10;55.60;;;;;;4987248;28;20189;-69
2023/03/26 13:57:32;;;;;;;1.38;0.95;;;19.10;55.50;;;;;;4987905;28;20189;-70
2023/03/26 14:00:11;;;;;;;1.65;0.88;;;19.10;55.60;;;;;;4980509;28;20252;-70
2023/03/26 14:02:43;;;;;;;1.63;0.90;;;19.10;55.70;;;;;;4992108;28;20205;-70
2023/03/26 14:05:12;;;;;;;2.10;1.00;;;19.10;55.60;;;;;;4988105;28;20201;-69